Campanya meteocatpedra

Dades de l'estació automàtica la Tosa d'Alp 2500

?
?
Resum diari 20:00 TU
Dades diàries de l'estació meteorològica
Temperatura mitjana 5.8 °C
Temperatura màxima 8.5 °C 13:54 TU
Temperatura mínima 3.9 °C 1:03 TU
Humitat relativa mitjana 78%
Ratxa màxima del vent (10 m) 29.2 km/h - 193º 17:09 TU
Irradiació solar global 20.9 MJ/m2

El tram horari està expressat en Temps Universal (TU). Cal sumar una hora en horari d'hivern i dues en horari d'estiu per passar a l'hora oficial.

la Tosa d'Alp 2500

Metadades estació meteorol´gica
Municipi Alp
Comarca Cerdanya
Altitud 2478 m
Data alta 04.09.2014
Estat actual Operativa
Dades de període
Període
TU
TM
°C
TX
°C
TN
°C
HRM
%
VVM (10 m)
km/h
DVM (10 m)
graus
VVX (10 m)
km/h
RS
W/m2
00:00 - 00:30 4.0 4.1 3.9 82 13.3 284 19.4 0
00:30 - 01:00 4.0 4.1 3.9 82 9.7 301 12.6 0
01:00 - 01:30 4.1 4.3 3.9 80 10.1 325 13.0 0
01:30 - 02:00 4.3 4.7 4.2 73 4.0 351 10.1 0
02:00 - 02:30 4.7 4.9 4.5 68 (s/d) (s/d) (s/d) 0
02:30 - 03:00 4.6 4.9 4.3 68 (s/d) (s/d) (s/d) 0
03:00 - 03:30 4.6 4.9 4.0 67 (s/d) (s/d) (s/d) 0
03:30 - 04:00 4.4 4.6 4.1 67 (s/d) (s/d) (s/d) 0
04:00 - 04:30 4.9 5.1 4.5 62 (s/d) (s/d) (s/d) 0
04:30 - 05:00 4.8 4.9 4.7 65 (s/d) (s/d) (s/d) 0
05:00 - 05:30 4.9 5.1 4.6 65 (s/d) (s/d) (s/d) 22
05:30 - 06:00 4.5 4.6 4.4 69 (s/d) (s/d) (s/d) 87
06:00 - 06:30 4.7 4.8 4.6 69 (s/d) (s/d) (s/d) 174
06:30 - 07:00 4.7 4.9 4.6 70 3.6 252 14.8 272
07:00 - 07:30 4.6 4.8 4.4 73 13.0 266 16.9 373
07:30 - 08:00 5.0 5.2 4.8 65 14.8 272 18.4 471
08:00 - 08:30 5.3 5.6 5.2 63 13.7 264 16.9 568
08:30 - 09:00 5.5 5.6 5.4 65 10.1 235 14.4 653
09:00 - 09:30 5.9 6.1 5.6 62 6.8 240 19.8 726
09:30 - 10:00 6.2 6.5 6.0 70 0.4 268 9.0 768
10:00 - 10:30 6.9 7.8 6.4 73 0.0 0 0.0 839
10:30 - 11:00 6.8 7.9 6.5 73 0.4 139 8.3 734
11:00 - 11:30 6.8 7.5 6.4 79 1.8 153 19.8 647
11:30 - 12:00 6.8 7.2 6.5 79 1.4 261 6.8 367
12:00 - 12:30 6.9 7.1 6.6 80 6.5 252 12.2 456
12:30 - 13:00 7.5 7.8 6.8 76 7.2 220 18.0 666
13:00 - 13:30 7.5 7.6 7.3 78 7.6 227 15.5 387
13:30 - 14:00 7.8 8.5 7.4 78 4.0 232 11.2 434
14:00 - 14:30 7.9 8.4 7.3 79 7.2 195 15.5 491
14:30 - 15:00 7.9 8.4 7.4 82 7.9 210 14.0 591
15:00 - 15:30 7.6 7.9 7.4 87 13.0 181 22.0 599
15:30 - 16:00 7.5 7.9 7.2 89 15.1 188 25.2 481
16:00 - 16:30 7.0 7.3 6.6 96 16.2 185 25.2 387
16:30 - 17:00 6.4 6.8 6.3 99 20.5 187 27.4 159
17:00 - 17:30 6.2 6.3 6.1 100 22.3 188 29.2 162
17:30 - 18:00 6.0 6.2 5.7 100 19.1 195 26.6 76
18:00 - 18:30 5.9 6.0 5.7 100 14.4 195 23.4 51
18:30 - 19:00 6.0 6.4 5.6 96 12.6 245 18.7 5
19:00 - 19:30 6.3 6.5 6.3 88 18.4 282 25.2 0
19:30 - 20:00 6.3 6.4 6.2 91 17.3 294 20.9 0
20:00 - 20:30 6.0 6.2 5.8 94 15.8 300 20.2 0
20:30 - 21:00 (s/d) (s/d) (s/d) (s/d) (s/d) (s/d) (s/d) (s/d)

Les dades en taronja només han passat un control de qualitat automàtic. Resta pendent la seva validació definitiva.